Decoded Metar for UASS (SEMIPLATINSK in KAZAKHSTAN) (IATA:PLX) | Meteo·Mobile Aviation Weather
aviador You're here:

UASS Decoded Metar

SEMIPLATINSK in KAZAKHSTAN
Report Time2019-10-21 06:30:00
UTC Time2019-10-21 07:10:06
Flight Rules vfr VFR
Wind350° at 14 kt
W.Decomp.*RWY 02: 11.2 kt HW 8.4 kt LCW
RWY 26: 1.7 kt HW 13.9 kt RCW
Visibility9999 m
Phenomena:N/A
Clouds:Broken 035 Hf
Expected CloudBase > 3,200 ft AGL from Temp-Dew spread
Ceiling3,500 ft
Temp-2°C (ISA -15)
Dew Point-10°C (55% RH)
AAT-10.1°C
QNH1034 hPa
Density Alt-1,808 ft
Elevation760 ft
Report Wrong Elevation
Raw Report
UASS 210630Z 35007MPS 9999 BKN035 M02/M10 Q1034 R26/0///60 NOSIG
RMK QFE757/1009=

Extra information for UASS:More info

Metar Taf Metar & Taf Last 4 Metars F.Rules Stats Wind Profile Meteogram Temp Stats Airport Information Weather charts Add Link Nearby VenuesMetar ALERT Operation Metar Decoded Social comments